sensor_id;sensor_type;location;lat;lon;timestamp;P1;durP1;ratioP1;P2;durP2;ratioP2
68800;SDS011;55784;50.734;7.086;2023-04-28T00:01:12;7.43;;;2.50;;
68800;SDS011;55784;50.734;7.086;2023-04-28T00:03:38;8.47;;;2.50;;
68800;SDS011;55784;50.734;7.086;2023-04-28T00:06:03;9.95;;;2.50;;
68800;SDS011;55784;50.734;7.086;2023-04-28T00:08:29;8.00;;;2.57;;
68800;SDS011;55784;50.734;7.086;2023-04-28T00:10:54;6.77;;;2.33;;
68800;SDS011;55784;50.734;7.086;2023-04-28T00:13:19;7.17;;;2.37;;
68800;SDS011;55784;50.734;7.086;2023-04-28T00:15:45;8.00;;;2.60;;
68800;SDS011;55784;50.734;7.086;2023-04-28T00:18:10;8.52;;;2.53;;
68800;SDS011;55784;50.734;7.086;2023-04-28T00:20:35;5.97;;;2.37;;
68800;SDS011;55784;50.734;7.086;2023-04-28T00:23:01;7.33;;;2.30;;
68800;SDS011;55784;50.734;7.086;2023-04-28T00:25:26;7.23;;;2.23;;
68800;SDS011;55784;50.734;7.086;2023-04-28T00:27:52;6.07;;;2.22;;
68800;SDS011;55784;50.734;7.086;2023-04-28T00:30:17;7.17;;;2.60;;
68800;SDS011;55784;50.734;7.086;2023-04-28T00:32:42;9.40;;;2.57;;
68800;SDS011;55784;50.734;7.086;2023-04-28T00:35:08;6.80;;;2.40;;
68800;SDS011;55784;50.734;7.086;2023-04-28T00:37:37;6.75;;;2.38;;
68800;SDS011;55784;50.734;7.086;2023-04-28T00:40:03;8.60;;;2.83;;
68800;SDS011;55784;50.734;7.086;2023-04-28T00:42:29;7.55;;;2.63;;
68800;SDS011;55784;50.734;7.086;2023-04-28T00:44:54;8.40;;;2.63;;
68800;SDS011;55784;50.734;7.086;2023-04-28T00:47:20;6.77;;;2.53;;
68800;SDS011;55784;50.734;7.086;2023-04-28T00:49:46;7.47;;;2.90;;
68800;SDS011;55784;50.734;7.086;2023-04-28T00:52:13;7.53;;;2.60;;
68800;SDS011;55784;50.734;7.086;2023-04-28T00:54:40;9.57;;;2.80;;
68800;SDS011;55784;50.734;7.086;2023-04-28T00:57:06;9.15;;;2.80;;
68800;SDS011;55784;50.734;7.086;2023-04-28T00:59:33;7.40;;;2.80;;
68800;SDS011;55784;50.734;7.086;2023-04-28T01:01:59;8.00;;;2.97;;
68800;SDS011;55784;50.734;7.086;2023-04-28T01:04:25;8.60;;;3.05;;
68800;SDS011;55784;50.734;7.086;2023-04-28T01:06:51;8.47;;;2.70;;
68800;SDS011;55784;50.734;7.086;2023-04-28T01:09:17;10.10;;;3.00;;
68800;SDS011;55784;50.734;7.086;2023-04-28T01:11:43;8.27;;;3.00;;
68800;SDS011;55784;50.734;7.086;2023-04-28T01:14:08;7.13;;;2.90;;
68800;SDS011;55784;50.734;7.086;2023-04-28T01:16:34;8.10;;;2.57;;
68800;SDS011;55784;50.734;7.086;2023-04-28T01:18:59;8.30;;;2.90;;
68800;SDS011;55784;50.734;7.086;2023-04-28T01:21:31;10.23;;;3.33;;
68800;SDS011;55784;50.734;7.086;2023-04-28T01:23:57;8.75;;;3.00;;
68800;SDS011;55784;50.734;7.086;2023-04-28T01:26:23;9.63;;;3.03;;
68800;SDS011;55784;50.734;7.086;2023-04-28T01:28:48;8.40;;;3.00;;
68800;SDS011;55784;50.734;7.086;2023-04-28T01:31:14;8.20;;;3.03;;
68800;SDS011;55784;50.734;7.086;2023-04-28T01:33:39;10.80;;;3.23;;
68800;SDS011;55784;50.734;7.086;2023-04-28T01:36:05;6.82;;;2.83;;
68800;SDS011;55784;50.734;7.086;2023-04-28T01:38:30;8.17;;;3.67;;
68800;SDS011;55784;50.734;7.086;2023-04-28T01:40:56;9.90;;;3.23;;
68800;SDS011;55784;50.734;7.086;2023-04-28T01:43:22;12.77;;;3.20;;
68800;SDS011;55784;50.734;7.086;2023-04-28T01:45:48;7.63;;;3.00;;
68800;SDS011;55784;50.734;7.086;2023-04-28T01:48:13;7.80;;;2.90;;
68800;SDS011;55784;50.734;7.086;2023-04-28T01:50:38;9.30;;;3.40;;
68800;SDS011;55784;50.734;7.086;2023-04-28T01:53:03;7.23;;;3.20;;
68800;SDS011;55784;50.734;7.086;2023-04-28T01:55:29;8.10;;;3.07;;
68800;SDS011;55784;50.734;7.086;2023-04-28T01:57:54;8.50;;;3.20;;
68800;SDS011;55784;50.734;7.086;2023-04-28T02:00:22;8.43;;;3.60;;
68800;SDS011;55784;50.734;7.086;2023-04-28T02:02:47;8.60;;;3.00;;
68800;SDS011;55784;50.734;7.086;2023-04-28T02:05:12;8.47;;;2.93;;
68800;SDS011;55784;50.734;7.086;2023-04-28T02:07:37;8.37;;;3.03;;
68800;SDS011;55784;50.734;7.086;2023-04-28T02:10:03;7.60;;;3.30;;
68800;SDS011;55784;50.734;7.086;2023-04-28T02:12:28;7.60;;;3.30;;
68800;SDS011;55784;50.734;7.086;2023-04-28T02:14:54;7.80;;;3.00;;
68800;SDS011;55784;50.734;7.086;2023-04-28T02:17:19;9.00;;;3.23;;
68800;SDS011;55784;50.734;7.086;2023-04-28T02:19:45;8.00;;;3.40;;
68800;SDS011;55784;50.734;7.086;2023-04-28T02:22:10;8.43;;;3.10;;
68800;SDS011;55784;50.734;7.086;2023-04-28T02:24:35;8.97;;;3.50;;
68800;SDS011;55784;50.734;7.086;2023-04-28T02:27:02;8.43;;;3.50;;
68800;SDS011;55784;50.734;7.086;2023-04-28T02:29:28;8.20;;;3.40;;
68800;SDS011;55784;50.734;7.086;2023-04-28T02:31:54;7.40;;;3.40;;
68800;SDS011;55784;50.734;7.086;2023-04-28T02:34:19;8.67;;;3.47;;
68800;SDS011;55784;50.734;7.086;2023-04-28T02:36:45;8.57;;;3.53;;
68800;SDS011;55784;50.734;7.086;2023-04-28T02:39:12;8.88;;;3.25;;
68800;SDS011;55784;50.734;7.086;2023-04-28T02:41:37;8.70;;;3.07;;
68800;SDS011;55784;50.734;7.086;2023-04-28T02:44:02;9.77;;;3.63;;
68800;SDS011;55784;50.734;7.086;2023-04-28T02:46:28;11.30;;;3.80;;
68800;SDS011;55784;50.734;7.086;2023-04-28T02:48:53;9.43;;;3.40;;
68800;SDS011;55784;50.734;7.086;2023-04-28T02:51:20;9.35;;;3.53;;
68800;SDS011;55784;50.734;7.086;2023-04-28T02:53:45;9.37;;;3.43;;
68800;SDS011;55784;50.734;7.086;2023-04-28T02:56:11;9.03;;;3.63;;
68800;SDS011;55784;50.734;7.086;2023-04-28T02:58:36;9.95;;;3.72;;
68800;SDS011;55784;50.734;7.086;2023-04-28T03:01:01;8.90;;;3.73;;
68800;SDS011;55784;50.734;7.086;2023-04-28T03:03:27;11.83;;;3.77;;
68800;SDS011;55784;50.734;7.086;2023-04-28T03:05:52;10.03;;;3.90;;
68800;SDS011;55784;50.734;7.086;2023-04-28T03:08:17;9.97;;;3.83;;
68800;SDS011;55784;50.734;7.086;2023-04-28T03:10:44;10.70;;;3.70;;
68800;SDS011;55784;50.734;7.086;2023-04-28T03:13:10;9.20;;;3.53;;
68800;SDS011;55784;50.734;7.086;2023-04-28T03:15:35;9.33;;;4.10;;
68800;SDS011;55784;50.734;7.086;2023-04-28T03:18:01;7.57;;;3.60;;
68800;SDS011;55784;50.734;7.086;2023-04-28T03:20:26;10.30;;;4.30;;
68800;SDS011;55784;50.734;7.086;2023-04-28T03:22:51;9.20;;;3.90;;
68800;SDS011;55784;50.734;7.086;2023-04-28T03:25:17;9.50;;;3.87;;
68800;SDS011;55784;50.734;7.086;2023-04-28T03:27:42;8.80;;;3.90;;
68800;SDS011;55784;50.734;7.086;2023-04-28T03:30:07;9.88;;;4.03;;
68800;SDS011;55784;50.734;7.086;2023-04-28T03:32:34;9.17;;;4.10;;
68800;SDS011;55784;50.734;7.086;2023-04-28T03:35:00;10.43;;;4.30;;
68800;SDS011;55784;50.734;7.086;2023-04-28T03:37:25;11.37;;;4.33;;
68800;SDS011;55784;50.734;7.086;2023-04-28T03:39:51;10.85;;;4.30;;
68800;SDS011;55784;50.734;7.086;2023-04-28T03:42:16;9.97;;;4.40;;
68800;SDS011;55784;50.734;7.086;2023-04-28T03:44:42;10.13;;;4.60;;
68800;SDS011;55784;50.734;7.086;2023-04-28T03:47:07;12.07;;;5.10;;
68800;SDS011;55784;50.734;7.086;2023-04-28T03:49:32;9.90;;;4.50;;
68800;SDS011;55784;50.734;7.086;2023-04-28T03:51:58;11.50;;;4.40;;
68800;SDS011;55784;50.734;7.086;2023-04-28T03:54:23;11.63;;;4.73;;
68800;SDS011;55784;50.734;7.086;2023-04-28T03:56:48;11.98;;;4.43;;
68800;SDS011;55784;50.734;7.086;2023-04-28T03:59:14;11.00;;;4.40;;
68800;SDS011;55784;50.734;7.086;2023-04-28T04:01:39;10.63;;;4.40;;
68800;SDS011;55784;50.734;7.086;2023-04-28T04:04:05;11.80;;;4.63;;
68800;SDS011;55784;50.734;7.086;2023-04-28T04:06:30;10.25;;;4.35;;
68800;SDS011;55784;50.734;7.086;2023-04-28T04:08:56;10.87;;;4.30;;
68800;SDS011;55784;50.734;7.086;2023-04-28T04:11:21;10.88;;;4.18;;
68800;SDS011;55784;50.734;7.086;2023-04-28T04:13:47;11.00;;;4.23;;
68800;SDS011;55784;50.734;7.086;2023-04-28T04:16:12;10.33;;;4.40;;
68800;SDS011;55784;50.734;7.086;2023-04-28T04:18:39;11.98;;;4.43;;
68800;SDS011;55784;50.734;7.086;2023-04-28T04:21:05;9.83;;;4.40;;
68800;SDS011;55784;50.734;7.086;2023-04-28T04:23:31;8.97;;;4.03;;
68800;SDS011;55784;50.734;7.086;2023-04-28T04:25:56;11.27;;;4.57;;
68800;SDS011;55784;50.734;7.086;2023-04-28T04:28:21;10.50;;;3.90;;
68800;SDS011;55784;50.734;7.086;2023-04-28T04:30:46;10.73;;;4.30;;
68800;SDS011;55784;50.734;7.086;2023-04-28T04:33:12;9.93;;;3.80;;
68800;SDS011;55784;50.734;7.086;2023-04-28T04:35:37;12.10;;;4.10;;
68800;SDS011;55784;50.734;7.086;2023-04-28T04:38:03;9.17;;;3.70;;
68800;SDS011;55784;50.734;7.086;2023-04-28T04:40:28;9.20;;;4.05;;
68800;SDS011;55784;50.734;7.086;2023-04-28T04:42:54;10.53;;;4.00;;
68800;SDS011;55784;50.734;7.086;2023-04-28T04:45:19;13.73;;;4.47;;
68800;SDS011;55784;50.734;7.086;2023-04-28T04:47:45;9.65;;;4.18;;
68800;SDS011;55784;50.734;7.086;2023-04-28T04:50:10;11.43;;;4.20;;
68800;SDS011;55784;50.734;7.086;2023-04-28T04:52:36;10.60;;;4.10;;
68800;SDS011;55784;50.734;7.086;2023-04-28T04:55:02;12.10;;;4.55;;
68800;SDS011;55784;50.734;7.086;2023-04-28T04:57:28;8.75;;;4.00;;
68800;SDS011;55784;50.734;7.086;2023-04-28T04:59:53;10.87;;;4.20;;
68800;SDS011;55784;50.734;7.086;2023-04-28T05:02:19;10.50;;;4.30;;
68800;SDS011;55784;50.734;7.086;2023-04-28T05:04:44;11.80;;;4.43;;
68800;SDS011;55784;50.734;7.086;2023-04-28T05:07:09;8.75;;;4.20;;
68800;SDS011;55784;50.734;7.086;2023-04-28T05:09:35;9.77;;;4.10;;
68800;SDS011;55784;50.734;7.086;2023-04-28T05:12:00;8.50;;;3.70;;
68800;SDS011;55784;50.734;7.086;2023-04-28T05:14:25;9.83;;;4.10;;
68800;SDS011;55784;50.734;7.086;2023-04-28T05:16:51;12.03;;;4.60;;
68800;SDS011;55784;50.734;7.086;2023-04-28T05:19:16;10.23;;;4.10;;
68800;SDS011;55784;50.734;7.086;2023-04-28T05:21:42;10.03;;;4.10;;
68800;SDS011;55784;50.734;7.086;2023-04-28T05:24:07;10.18;;;4.32;;
68800;SDS011;55784;50.734;7.086;2023-04-28T05:26:32;11.10;;;3.97;;
68800;SDS011;55784;50.734;7.086;2023-04-28T05:28:58;10.10;;;4.37;;
68800;SDS011;55784;50.734;7.086;2023-04-28T05:31:23;10.13;;;4.50;;
68800;SDS011;55784;50.734;7.086;2023-04-28T05:33:48;10.53;;;4.73;;
68800;SDS011;55784;50.734;7.086;2023-04-28T05:36:14;10.73;;;4.60;;
68800;SDS011;55784;50.734;7.086;2023-04-28T05:38:41;11.50;;;4.82;;
68800;SDS011;55784;50.734;7.086;2023-04-28T05:41:07;12.15;;;5.00;;
68800;SDS011;55784;50.734;7.086;2023-04-28T05:43:32;11.73;;;4.70;;
68800;SDS011;55784;50.734;7.086;2023-04-28T05:45:58;9.27;;;4.70;;
68800;SDS011;55784;50.734;7.086;2023-04-28T05:48:23;13.00;;;4.90;;
68800;SDS011;55784;50.734;7.086;2023-04-28T05:50:48;10.77;;;4.60;;
68800;SDS011;55784;50.734;7.086;2023-04-28T05:53:14;11.57;;;4.90;;
68800;SDS011;55784;50.734;7.086;2023-04-28T05:55:39;10.83;;;4.80;;
68800;SDS011;55784;50.734;7.086;2023-04-28T05:58:05;11.43;;;4.60;;
68800;SDS011;55784;50.734;7.086;2023-04-28T06:00:31;11.47;;;5.10;;
68800;SDS011;55784;50.734;7.086;2023-04-28T06:02:58;11.43;;;4.97;;
68800;SDS011;55784;50.734;7.086;2023-04-28T06:05:23;10.57;;;4.50;;
68800;SDS011;55784;50.734;7.086;2023-04-28T06:07:49;12.23;;;5.10;;
68800;SDS011;55784;50.734;7.086;2023-04-28T06:10:14;12.97;;;5.63;;
68800;SDS011;55784;50.734;7.086;2023-04-28T06:12:39;11.03;;;5.00;;
68800;SDS011;55784;50.734;7.086;2023-04-28T06:15:05;10.77;;;5.03;;
68800;SDS011;55784;50.734;7.086;2023-04-28T06:17:33;12.52;;;5.70;;
68800;SDS011;55784;50.734;7.086;2023-04-28T06:19:59;13.03;;;5.60;;
68800;SDS011;55784;50.734;7.086;2023-04-28T06:22:24;12.02;;;5.20;;
68800;SDS011;55784;50.734;7.086;2023-04-28T06:24:50;11.57;;;5.00;;
68800;SDS011;55784;50.734;7.086;2023-04-28T06:27:16;12.02;;;5.35;;
68800;SDS011;55784;50.734;7.086;2023-04-28T06:29:41;12.30;;;5.00;;
68800;SDS011;55784;50.734;7.086;2023-04-28T06:32:08;10.97;;;4.50;;
68800;SDS011;55784;50.734;7.086;2023-04-28T06:34:39;12.77;;;4.32;;
68800;SDS011;55784;50.734;7.086;2023-04-28T06:37:43;11.13;;;4.70;;
68800;SDS011;55784;50.734;7.086;2023-04-28T06:45:32;10.50;;;4.30;;
68800;SDS011;55784;50.734;7.086;2023-04-28T06:48:03;10.15;;;4.38;;
68800;SDS011;55784;50.734;7.086;2023-04-28T06:50:49;10.10;;;4.15;;
68800;SDS011;55784;50.734;7.086;2023-04-28T06:53:15;9.55;;;4.68;;
68800;SDS011;55784;50.734;7.086;2023-04-28T06:55:40;10.27;;;4.50;;
68800;SDS011;55784;50.734;7.086;2023-04-28T06:58:06;11.60;;;4.40;;
68800;SDS011;55784;50.734;7.086;2023-04-28T07:00:31;10.27;;;4.17;;
68800;SDS011;55784;50.734;7.086;2023-04-28T07:02:58;9.20;;;4.30;;
68800;SDS011;55784;50.734;7.086;2023-04-28T07:05:23;9.50;;;4.43;;
68800;SDS011;55784;50.734;7.086;2023-04-28T07:07:49;9.70;;;4.10;;
68800;SDS011;55784;50.734;7.086;2023-04-28T07:10:14;10.20;;;4.13;;
68800;SDS011;55784;50.734;7.086;2023-04-28T07:12:40;9.70;;;4.10;;
68800;SDS011;55784;50.734;7.086;2023-04-28T07:15:05;9.83;;;3.90;;
68800;SDS011;55784;50.734;7.086;2023-04-28T07:17:31;8.65;;;4.13;;
68800;SDS011;55784;50.734;7.086;2023-04-28T07:19:57;8.43;;;4.00;;
68800;SDS011;55784;50.734;7.086;2023-04-28T07:22:22;9.30;;;3.90;;
68800;SDS011;55784;50.734;7.086;2023-04-28T07:24:48;9.68;;;3.80;;
68800;SDS011;55784;50.734;7.086;2023-04-28T07:27:13;8.23;;;3.70;;
68800;SDS011;55784;50.734;7.086;2023-04-28T07:29:39;8.90;;;3.97;;
68800;SDS011;55784;50.734;7.086;2023-04-28T07:32:04;9.33;;;3.93;;
68800;SDS011;55784;50.734;7.086;2023-04-28T07:34:32;10.10;;;4.38;;
68800;SDS011;55784;50.734;7.086;2023-04-28T07:36:57;8.97;;;3.87;;
68800;SDS011;55784;50.734;7.086;2023-04-28T07:39:23;9.73;;;3.40;;
68800;SDS011;55784;50.734;7.086;2023-04-28T07:41:49;9.37;;;3.60;;
68800;SDS011;55784;50.734;7.086;2023-04-28T07:44:14;10.35;;;4.70;;
68800;SDS011;55784;50.734;7.086;2023-04-28T07:46:39;10.00;;;4.53;;
68800;SDS011;55784;50.734;7.086;2023-04-28T07:49:05;9.23;;;4.03;;
68800;SDS011;55784;50.734;7.086;2023-04-28T07:51:32;8.52;;;3.90;;
68800;SDS011;55784;50.734;7.086;2023-04-28T07:53:58;9.17;;;3.90;;
68800;SDS011;55784;50.734;7.086;2023-04-28T07:56:23;11.35;;;4.72;;
68800;SDS011;55784;50.734;7.086;2023-04-28T07:58:50;8.97;;;3.77;;
68800;SDS011;55784;50.734;7.086;2023-04-28T08:01:15;9.90;;;3.90;;
68800;SDS011;55784;50.734;7.086;2023-04-28T08:03:40;9.00;;;3.70;;
68800;SDS011;55784;50.734;7.086;2023-04-28T08:06:06;10.97;;;3.90;;
68800;SDS011;55784;50.734;7.086;2023-04-28T08:08:31;12.50;;;5.85;;
68800;SDS011;55784;50.734;7.086;2023-04-28T08:10:57;9.30;;;3.70;;
68800;SDS011;55784;50.734;7.086;2023-04-28T08:13:23;8.70;;;4.05;;
68800;SDS011;55784;50.734;7.086;2023-04-28T08:15:48;10.43;;;4.40;;
68800;SDS011;55784;50.734;7.086;2023-04-28T08:18:14;9.43;;;4.47;;
68800;SDS011;55784;50.734;7.086;2023-04-28T08:20:44;10.60;;;4.10;;
68800;SDS011;55784;50.734;7.086;2023-04-28T08:23:09;10.82;;;4.75;;
68800;SDS011;55784;50.734;7.086;2023-04-28T08:25:35;10.07;;;4.27;;
68800;SDS011;55784;50.734;7.086;2023-04-28T08:28:01;9.90;;;4.30;;
68800;SDS011;55784;50.734;7.086;2023-04-28T08:30:27;10.93;;;4.00;;
68800;SDS011;55784;50.734;7.086;2023-04-28T08:32:53;8.82;;;4.03;;
68800;SDS011;55784;50.734;7.086;2023-04-28T08:35:19;9.60;;;3.77;;
68800;SDS011;55784;50.734;7.086;2023-04-28T08:37:45;10.27;;;3.85;;
68800;SDS011;55784;50.734;7.086;2023-04-28T08:40:13;9.15;;;4.22;;
68800;SDS011;55784;50.734;7.086;2023-04-28T08:42:39;9.20;;;3.93;;
68800;SDS011;55784;50.734;7.086;2023-04-28T08:45:05;9.93;;;3.92;;
68800;SDS011;55784;50.734;7.086;2023-04-28T08:47:35;8.85;;;3.80;;
68800;SDS011;55784;50.734;7.086;2023-04-28T08:50:09;9.27;;;3.92;;
68800;SDS011;55784;50.734;7.086;2023-04-28T08:52:36;16.75;;;7.18;;
68800;SDS011;55784;50.734;7.086;2023-04-28T08:57:38;8.80;;;3.85;;
68800;SDS011;55784;50.734;7.086;2023-04-28T09:00:08;11.93;;;6.82;;
68800;SDS011;55784;50.734;7.086;2023-04-28T09:02:35;10.32;;;5.50;;
68800;SDS011;55784;50.734;7.086;2023-04-28T09:05:02;11.57;;;6.13;;
68800;SDS011;55784;50.734;7.086;2023-04-28T09:07:30;9.43;;;4.60;;
68800;SDS011;55784;50.734;7.086;2023-04-28T09:10:15;10.47;;;4.40;;
68800;SDS011;55784;50.734;7.086;2023-04-28T09:12:45;12.52;;;5.72;;
68800;SDS011;55784;50.734;7.086;2023-04-28T09:17:59;11.65;;;6.22;;
68800;SDS011;55784;50.734;7.086;2023-04-28T09:20:26;10.73;;;4.25;;
68800;SDS011;55784;50.734;7.086;2023-04-28T09:22:53;10.90;;;4.30;;
68800;SDS011;55784;50.734;7.086;2023-04-28T09:25:20;13.88;;;4.50;;
68800;SDS011;55784;50.734;7.086;2023-04-28T09:30:38;8.93;;;3.90;;
68800;SDS011;55784;50.734;7.086;2023-04-28T09:33:06;11.10;;;4.70;;
68800;SDS011;55784;50.734;7.086;2023-04-28T09:35:38;11.23;;;4.70;;
68800;SDS011;55784;50.734;7.086;2023-04-28T09:38:06;12.27;;;5.75;;
68800;SDS011;55784;50.734;7.086;2023-04-28T09:43:39;11.17;;;5.10;;
68800;SDS011;55784;50.734;7.086;2023-04-28T09:46:05;9.57;;;4.47;;
68800;SDS011;55784;50.734;7.086;2023-04-28T09:48:34;13.87;;;6.57;;
68800;SDS011;55784;50.734;7.086;2023-04-28T09:51:01;8.53;;;4.20;;
68800;SDS011;55784;50.734;7.086;2023-04-28T09:53:28;12.55;;;6.10;;
68800;SDS011;55784;50.734;7.086;2023-04-28T09:55:55;14.60;;;6.55;;
68800;SDS011;55784;50.734;7.086;2023-04-28T09:58:22;14.77;;;6.85;;
68800;SDS011;55784;50.734;7.086;2023-04-28T10:00:50;11.75;;;4.90;;
68800;SDS011;55784;50.734;7.086;2023-04-28T10:03:21;15.53;;;6.40;;
68800;SDS011;55784;50.734;7.086;2023-04-28T10:05:48;13.25;;;6.28;;
68800;SDS011;55784;50.734;7.086;2023-04-28T10:08:15;13.52;;;5.90;;
68800;SDS011;55784;50.734;7.086;2023-04-28T10:10:40;14.80;;;7.00;;
68800;SDS011;55784;50.734;7.086;2023-04-28T10:13:07;15.63;;;6.88;;
68800;SDS011;55784;50.734;7.086;2023-04-28T10:15:33;12.93;;;6.45;;
68800;SDS011;55784;50.734;7.086;2023-04-28T10:18:00;10.82;;;5.60;;
68800;SDS011;55784;50.734;7.086;2023-04-28T10:20:27;14.00;;;7.07;;
68800;SDS011;55784;50.734;7.086;2023-04-28T10:23:00;18.13;;;9.00;;
68800;SDS011;55784;50.734;7.086;2023-04-28T10:25:47;14.05;;;5.68;;
68800;SDS011;55784;50.734;7.086;2023-04-28T10:28:16;15.18;;;6.72;;
68800;SDS011;55784;50.734;7.086;2023-04-28T10:30:43;16.00;;;7.07;;
68800;SDS011;55784;50.734;7.086;2023-04-28T10:33:40;14.57;;;7.30;;
68800;SDS011;55784;50.734;7.086;2023-04-28T10:36:06;19.93;;;9.50;;
68800;SDS011;55784;50.734;7.086;2023-04-28T10:38:33;13.77;;;6.90;;
68800;SDS011;55784;50.734;7.086;2023-04-28T10:41:30;13.75;;;6.30;;
68800;SDS011;55784;50.734;7.086;2023-04-28T10:43:56;11.25;;;4.53;;
68800;SDS011;55784;50.734;7.086;2023-04-28T10:46:21;13.03;;;5.27;;
68800;SDS011;55784;50.734;7.086;2023-04-28T10:56:12;11.70;;;4.60;;
68800;SDS011;55784;50.734;7.086;2023-04-28T10:58:51;9.93;;;4.50;;
68800;SDS011;55784;50.734;7.086;2023-04-28T11:03:50;12.50;;;6.15;;
68800;SDS011;55784;50.734;7.086;2023-04-28T11:06:34;12.15;;;6.13;;
68800;SDS011;55784;50.734;7.086;2023-04-28T11:09:01;15.30;;;6.65;;
68800;SDS011;55784;50.734;7.086;2023-04-28T11:16:49;10.20;;;4.57;;
68800;SDS011;55784;50.734;7.086;2023-04-28T11:19:19;9.45;;;3.28;;
68800;SDS011;55784;50.734;7.086;2023-04-28T11:21:46;7.53;;;3.35;;
68800;SDS011;55784;50.734;7.086;2023-04-28T11:24:12;10.13;;;4.90;;
68800;SDS011;55784;50.734;7.086;2023-04-28T11:26:39;8.40;;;3.80;;
68800;SDS011;55784;50.734;7.086;2023-04-28T11:29:05;10.52;;;5.28;;
68800;SDS011;55784;50.734;7.086;2023-04-28T11:31:36;8.73;;;4.40;;
68800;SDS011;55784;50.734;7.086;2023-04-28T11:34:07;11.88;;;5.30;;
68800;SDS011;55784;50.734;7.086;2023-04-28T11:36:40;13.18;;;7.40;;
68800;SDS011;55784;50.734;7.086;2023-04-28T11:39:07;13.03;;;6.70;;
68800;SDS011;55784;50.734;7.086;2023-04-28T11:41:43;14.30;;;7.80;;
68800;SDS011;55784;50.734;7.086;2023-04-28T11:44:12;9.13;;;4.85;;
68800;SDS011;55784;50.734;7.086;2023-04-28T11:46:55;11.15;;;5.45;;
68800;SDS011;55784;50.734;7.086;2023-04-28T11:49:24;11.80;;;5.90;;
68800;SDS011;55784;50.734;7.086;2023-04-28T11:51:53;11.03;;;6.17;;
68800;SDS011;55784;50.734;7.086;2023-04-28T11:54:23;8.52;;;3.63;;
68800;SDS011;55784;50.734;7.086;2023-04-28T11:56:49;8.10;;;4.30;;
68800;SDS011;55784;50.734;7.086;2023-04-28T11:59:15;6.30;;;3.28;;
68800;SDS011;55784;50.734;7.086;2023-04-28T12:04:13;7.80;;;3.72;;
68800;SDS011;55784;50.734;7.086;2023-04-28T12:07:00;9.90;;;4.88;;
68800;SDS011;55784;50.734;7.086;2023-04-28T12:09:29;21.27;;;10.00;;
68800;SDS011;55784;50.734;7.086;2023-04-28T12:12:04;9.73;;;4.50;;
68800;SDS011;55784;50.734;7.086;2023-04-28T12:17:24;8.23;;;3.30;;
68800;SDS011;55784;50.734;7.086;2023-04-28T12:19:53;10.70;;;4.47;;
68800;SDS011;55784;50.734;7.086;2023-04-28T12:22:20;7.10;;;3.00;;
68800;SDS011;55784;50.734;7.086;2023-04-28T12:24:45;7.10;;;3.10;;
68800;SDS011;55784;50.734;7.086;2023-04-28T12:27:26;8.02;;;3.45;;
68800;SDS011;55784;50.734;7.086;2023-04-28T12:29:52;8.30;;;3.10;;
68800;SDS011;55784;50.734;7.086;2023-04-28T12:32:24;14.55;;;7.20;;
68800;SDS011;55784;50.734;7.086;2023-04-28T12:35:01;12.23;;;5.18;;
68800;SDS011;55784;50.734;7.086;2023-04-28T12:37:29;8.02;;;3.15;;
68800;SDS011;55784;50.734;7.086;2023-04-28T12:39:55;10.37;;;4.90;;
68800;SDS011;55784;50.734;7.086;2023-04-28T12:42:20;9.60;;;3.40;;
68800;SDS011;55784;50.734;7.086;2023-04-28T12:44:47;8.45;;;3.38;;
68800;SDS011;55784;50.734;7.086;2023-04-28T12:47:12;6.77;;;3.13;;
68800;SDS011;55784;50.734;7.086;2023-04-28T12:49:38;10.98;;;6.10;;
68800;SDS011;55784;50.734;7.086;2023-04-28T12:52:04;33.73;;;19.13;;
68800;SDS011;55784;50.734;7.086;2023-04-28T12:54:29;50.47;;;27.65;;
68800;SDS011;55784;50.734;7.086;2023-04-28T12:56:57;24.43;;;13.80;;
68800;SDS011;55784;50.734;7.086;2023-04-28T12:59:22;17.83;;;10.27;;
68800;SDS011;55784;50.734;7.086;2023-04-28T13:01:48;7.88;;;3.40;;
68800;SDS011;55784;50.734;7.086;2023-04-28T13:04:14;13.68;;;5.75;;
68800;SDS011;55784;50.734;7.086;2023-04-28T13:06:40;10.83;;;5.47;;
68800;SDS011;55784;50.734;7.086;2023-04-28T13:09:08;8.32;;;3.15;;
68800;SDS011;55784;50.734;7.086;2023-04-28T13:11:38;20.48;;;10.85;;
68800;SDS011;55784;50.734;7.086;2023-04-28T13:14:03;20.02;;;9.05;;
68800;SDS011;55784;50.734;7.086;2023-04-28T13:16:29;10.97;;;5.63;;
68800;SDS011;55784;50.734;7.086;2023-04-28T13:18:55;8.60;;;3.95;;
68800;SDS011;55784;50.734;7.086;2023-04-28T13:21:24;8.20;;;3.75;;
68800;SDS011;55784;50.734;7.086;2023-04-28T13:23:50;6.97;;;3.45;;
68800;SDS011;55784;50.734;7.086;2023-04-28T13:26:20;6.63;;;3.00;;
68800;SDS011;55784;50.734;7.086;2023-04-28T13:28:50;6.85;;;2.80;;
68800;SDS011;55784;50.734;7.086;2023-04-28T13:31:16;8.80;;;3.47;;
68800;SDS011;55784;50.734;7.086;2023-04-28T13:33:45;5.80;;;2.65;;
68800;SDS011;55784;50.734;7.086;2023-04-28T13:36:10;11.02;;;4.50;;
68800;SDS011;55784;50.734;7.086;2023-04-28T13:38:36;9.03;;;4.03;;
68800;SDS011;55784;50.734;7.086;2023-04-28T13:41:02;6.80;;;3.20;;
68800;SDS011;55784;50.734;7.086;2023-04-28T13:43:27;10.87;;;4.90;;
68800;SDS011;55784;50.734;7.086;2023-04-28T13:45:53;17.60;;;6.87;;
68800;SDS011;55784;50.734;7.086;2023-04-28T13:48:18;15.13;;;6.67;;
68800;SDS011;55784;50.734;7.086;2023-04-28T13:50:43;7.80;;;3.40;;
68800;SDS011;55784;50.734;7.086;2023-04-28T13:53:09;7.73;;;3.30;;
68800;SDS011;55784;50.734;7.086;2023-04-28T13:55:36;6.32;;;2.90;;
68800;SDS011;55784;50.734;7.086;2023-04-28T13:58:01;6.90;;;2.70;;
68800;SDS011;55784;50.734;7.086;2023-04-28T14:00:31;7.45;;;3.10;;
68800;SDS011;55784;50.734;7.086;2023-04-28T14:03:01;7.55;;;3.40;;
68800;SDS011;55784;50.734;7.086;2023-04-28T14:05:27;6.77;;;2.87;;
68800;SDS011;55784;50.734;7.086;2023-04-28T14:07:53;7.53;;;2.73;;
68800;SDS011;55784;50.734;7.086;2023-04-28T14:10:19;6.78;;;2.80;;
68800;SDS011;55784;50.734;7.086;2023-04-28T14:12:44;5.90;;;2.63;;
68800;SDS011;55784;50.734;7.086;2023-04-28T14:15:10;16.90;;;10.80;;
68800;SDS011;55784;50.734;7.086;2023-04-28T14:17:35;13.27;;;8.10;;
68800;SDS011;55784;50.734;7.086;2023-04-28T14:20:01;9.33;;;5.17;;
68800;SDS011;55784;50.734;7.086;2023-04-28T14:22:26;7.82;;;3.60;;
68800;SDS011;55784;50.734;7.086;2023-04-28T14:24:52;7.43;;;3.50;;
68800;SDS011;55784;50.734;7.086;2023-04-28T14:27:17;8.77;;;4.20;;
68800;SDS011;55784;50.734;7.086;2023-04-28T14:29:43;7.30;;;3.60;;
68800;SDS011;55784;50.734;7.086;2023-04-28T14:32:12;7.43;;;3.60;;
68800;SDS011;55784;50.734;7.086;2023-04-28T14:34:38;6.50;;;3.07;;
68800;SDS011;55784;50.734;7.086;2023-04-28T14:37:03;7.85;;;3.00;;
68800;SDS011;55784;50.734;7.086;2023-04-28T14:39:29;7.67;;;4.40;;
68800;SDS011;55784;50.734;7.086;2023-04-28T14:41:54;8.47;;;3.80;;
68800;SDS011;55784;50.734;7.086;2023-04-28T14:44:19;7.70;;;2.97;;
68800;SDS011;55784;50.734;7.086;2023-04-28T14:46:45;7.13;;;3.20;;
68800;SDS011;55784;50.734;7.086;2023-04-28T14:49:10;9.30;;;3.55;;
68800;SDS011;55784;50.734;7.086;2023-04-28T14:51:36;6.90;;;3.30;;
68800;SDS011;55784;50.734;7.086;2023-04-28T14:54:01;7.43;;;3.27;;
68800;SDS011;55784;50.734;7.086;2023-04-28T14:56:27;5.40;;;2.00;;
68800;SDS011;55784;50.734;7.086;2023-04-28T14:58:52;6.03;;;2.20;;
68800;SDS011;55784;50.734;7.086;2023-04-28T15:01:18;5.03;;;1.70;;
68800;SDS011;55784;50.734;7.086;2023-04-28T15:03:43;6.00;;;1.80;;
68800;SDS011;55784;50.734;7.086;2023-04-28T15:06:09;5.95;;;1.40;;
68800;SDS011;55784;50.734;7.086;2023-04-28T15:08:35;4.72;;;1.60;;
68800;SDS011;55784;50.734;7.086;2023-04-28T15:11:01;4.90;;;1.50;;
68800;SDS011;55784;50.734;7.086;2023-04-28T15:13:26;6.63;;;1.47;;
68800;SDS011;55784;50.734;7.086;2023-04-28T15:15:52;3.90;;;1.20;;